sensor_id;sensor_type;location;lat;lon;timestamp;pressure;altitude;pressure_sealevel;temperature;humidity
66524;BME280;53350;52.210;5.160;2023-04-30T00:01:35;102446.53;;;11.17;65.67
66524;BME280;53350;52.210;5.160;2023-04-30T00:04:03;102437.84;;;11.10;65.33
66524;BME280;53350;52.210;5.160;2023-04-30T00:06:30;102443.78;;;11.04;65.27
66524;BME280;53350;52.210;5.160;2023-04-30T00:08:56;102435.09;;;10.98;64.96
66524;BME280;53350;52.210;5.160;2023-04-30T00:11:22;102441.94;;;10.92;65.28
66524;BME280;53350;52.210;5.160;2023-04-30T00:13:50;102443.59;;;10.89;65.39
66524;BME280;53350;52.210;5.160;2023-04-30T00:16:17;102441.88;;;10.86;65.37
66524;BME280;53350;52.210;5.160;2023-04-30T00:18:43;102451.28;;;10.84;65.44
66524;BME280;53350;52.210;5.160;2023-04-30T00:21:11;102449.50;;;10.80;65.45
66524;BME280;53350;52.210;5.160;2023-04-30T00:23:37;102439.19;;;10.78;65.50
66524;BME280;53350;52.210;5.160;2023-04-30T00:26:04;102440.88;;;10.76;65.50
66524;BME280;53350;52.210;5.160;2023-04-30T00:28:30;102438.28;;;10.73;65.56
66524;BME280;53350;52.210;5.160;2023-04-30T00:30:57;102442.50;;;10.70;65.79
66524;BME280;53350;52.210;5.160;2023-04-30T00:33:23;102439.06;;;10.68;65.85
66524;BME280;53350;52.210;5.160;2023-04-30T00:35:50;102444.19;;;10.66;66.08
66524;BME280;53350;52.210;5.160;2023-04-30T00:38:18;102446.75;;;10.65;66.07
66524;BME280;53350;52.210;5.160;2023-04-30T00:40:45;102450.16;;;10.64;66.50
66524;BME280;53350;52.210;5.160;2023-04-30T00:43:12;102455.25;;;10.57;66.80
66524;BME280;53350;52.210;5.160;2023-04-30T00:45:38;102455.22;;;10.54;67.31
66524;BME280;53350;52.210;5.160;2023-04-30T00:48:04;102460.31;;;10.53;67.67
66524;BME280;53350;52.210;5.160;2023-04-30T00:50:31;102462.03;;;10.52;67.92
66524;BME280;53350;52.210;5.160;2023-04-30T00:53:01;102472.34;;;10.54;67.89
66524;BME280;53350;52.210;5.160;2023-04-30T00:55:29;102472.34;;;10.54;67.88
66524;BME280;53350;52.210;5.160;2023-04-30T00:57:55;102468.09;;;10.54;67.79
66524;BME280;53350;52.210;5.160;2023-04-30T01:00:22;102470.63;;;10.53;67.60
66524;BME280;53350;52.210;5.160;2023-04-30T01:02:49;102471.47;;;10.50;67.38
66524;BME280;53350;52.210;5.160;2023-04-30T01:05:15;102467.97;;;10.47;67.30
66524;BME280;53350;52.210;5.160;2023-04-30T01:07:42;102465.34;;;10.43;67.27
66524;BME280;53350;52.210;5.160;2023-04-30T01:10:11;102466.13;;;10.39;67.32
66524;BME280;53350;52.210;5.160;2023-04-30T01:12:43;102473.00;;;10.37;66.97
66524;BME280;53350;52.210;5.160;2023-04-30T01:15:18;102466.09;;;10.36;67.16
66524;BME280;53350;52.210;5.160;2023-04-30T01:17:53;102467.75;;;10.33;67.08
66524;BME280;53350;52.210;5.160;2023-04-30T01:20:21;102466.00;;;10.32;67.10
66524;BME280;53350;52.210;5.160;2023-04-30T01:22:54;102467.66;;;10.30;66.92
66524;BME280;53350;52.210;5.160;2023-04-30T01:25:34;102472.72;;;10.23;66.59
66524;BME280;53350;52.210;5.160;2023-04-30T01:28:04;102470.94;;;10.18;67.20
66524;BME280;53350;52.210;5.160;2023-04-30T01:30:32;102477.78;;;10.17;67.18
66524;BME280;53350;52.210;5.160;2023-04-30T01:32:58;102476.94;;;10.17;67.36
66524;BME280;53350;52.210;5.160;2023-04-30T01:35:34;102469.16;;;10.15;67.14
66524;BME280;53350;52.210;5.160;2023-04-30T01:38:11;102469.22;;;10.17;67.13
66524;BME280;53350;52.210;5.160;2023-04-30T01:40:43;102477.78;;;10.17;67.23
66524;BME280;53350;52.210;5.160;2023-04-30T01:43:19;102463.16;;;10.15;67.25
66524;BME280;53350;52.210;5.160;2023-04-30T01:45:56;102478.69;;;10.21;67.09
66524;BME280;53350;52.210;5.160;2023-04-30T01:48:33;102475.28;;;10.22;67.63
66524;BME280;53350;52.210;5.160;2023-04-30T01:51:07;102471.03;;;10.24;67.78
66524;BME280;53350;52.210;5.160;2023-04-30T01:53:42;102468.50;;;10.25;68.23
66524;BME280;53350;52.210;5.160;2023-04-30T01:56:11;102470.22;;;10.28;68.43
66524;BME280;53350;52.210;5.160;2023-04-30T01:58:44;102474.63;;;10.34;68.74
66524;BME280;53350;52.210;5.160;2023-04-30T02:01:24;102472.13;;;10.38;68.65
66524;BME280;53350;52.210;5.160;2023-04-30T02:03:51;102476.50;;;10.44;69.26
66524;BME280;53350;52.210;5.160;2023-04-30T02:06:17;102477.41;;;10.46;69.39
66524;BME280;53350;52.210;5.160;2023-04-30T02:08:44;102474.03;;;10.50;69.57
66524;BME280;53350;52.210;5.160;2023-04-30T02:11:10;102477.50;;;10.54;69.72
66524;BME280;53350;52.210;5.160;2023-04-30T02:13:37;102471.53;;;10.55;69.63
66524;BME280;53350;52.210;5.160;2023-04-30T02:16:05;102485.28;;;10.57;69.69
66524;BME280;53350;52.210;5.160;2023-04-30T02:18:32;102475.88;;;10.59;69.04
66524;BME280;53350;52.210;5.160;2023-04-30T02:20:58;102481.91;;;10.61;69.63
66524;BME280;53350;52.210;5.160;2023-04-30T02:23:25;102475.91;;;10.62;69.32
66524;BME280;53350;52.210;5.160;2023-04-30T02:25:51;102475.91;;;10.62;69.45
66524;BME280;53350;52.210;5.160;2023-04-30T02:28:17;102475.03;;;10.61;69.35
66524;BME280;53350;52.210;5.160;2023-04-30T02:30:44;102470.72;;;10.59;69.36
66524;BME280;53350;52.210;5.160;2023-04-30T02:33:12;102471.53;;;10.56;69.29
66524;BME280;53350;52.210;5.160;2023-04-30T02:35:39;102471.50;;;10.53;69.18
66524;BME280;53350;52.210;5.160;2023-04-30T02:38:06;102475.81;;;10.54;69.37
66524;BME280;53350;52.210;5.160;2023-04-30T02:40:32;102468.91;;;10.53;69.71
66524;BME280;53350;52.210;5.160;2023-04-30T02:42:59;102468.88;;;10.50;69.88
66524;BME280;53350;52.210;5.160;2023-04-30T02:45:25;102473.16;;;10.50;69.82
66524;BME280;53350;52.210;5.160;2023-04-30T02:47:52;102470.56;;;10.48;69.80
66524;BME280;53350;52.210;5.160;2023-04-30T02:50:20;102460.22;;;10.47;70.12
66524;BME280;53350;52.210;5.160;2023-04-30T02:52:46;102451.66;;;10.46;70.38
66524;BME280;53350;52.210;5.160;2023-04-30T02:55:13;102456.75;;;10.43;70.40
66524;BME280;53350;52.210;5.160;2023-04-30T02:57:39;102461.88;;;10.40;70.40
66524;BME280;53350;52.210;5.160;2023-04-30T03:00:06;102462.69;;;10.37;70.44
66524;BME280;53350;52.210;5.160;2023-04-30T03:02:33;102460.88;;;10.33;70.54
66524;BME280;53350;52.210;5.160;2023-04-30T03:05:00;102466.84;;;10.31;70.66
66524;BME280;53350;52.210;5.160;2023-04-30T03:07:28;102467.63;;;10.26;70.35
66524;BME280;53350;52.210;5.160;2023-04-30T03:09:54;102466.75;;;10.24;70.92
66524;BME280;53350;52.210;5.160;2023-04-30T03:12:21;102462.41;;;10.22;70.98
66524;BME280;53350;52.210;5.160;2023-04-30T03:14:47;102469.25;;;10.20;70.91
66524;BME280;53350;52.210;5.160;2023-04-30T03:17:14;102464.00;;;10.15;71.27
66524;BME280;53350;52.210;5.160;2023-04-30T03:19:40;102464.84;;;10.11;71.34
66524;BME280;53350;52.210;5.160;2023-04-30T03:22:07;102457.94;;;10.10;71.18
66524;BME280;53350;52.210;5.160;2023-04-30T03:24:35;102460.50;;;10.10;71.37
66524;BME280;53350;52.210;5.160;2023-04-30T03:27:01;102457.97;;;10.12;71.12
66524;BME280;53350;52.210;5.160;2023-04-30T03:29:28;102462.28;;;10.13;71.39
66524;BME280;53350;52.210;5.160;2023-04-30T03:31:54;102456.25;;;10.12;71.16
66524;BME280;53350;52.210;5.160;2023-04-30T03:34:20;102462.25;;;10.11;71.28
66524;BME280;53350;52.210;5.160;2023-04-30T03:36:47;102454.50;;;10.09;71.02
66524;BME280;53350;52.210;5.160;2023-04-30T03:39:13;102449.34;;;10.08;71.26
66524;BME280;53350;52.210;5.160;2023-04-30T03:41:41;102449.34;;;10.08;71.22
66524;BME280;53350;52.210;5.160;2023-04-30T03:44:08;102441.63;;;10.08;71.22
66524;BME280;53350;52.210;5.160;2023-04-30T03:46:39;102445.84;;;10.06;71.08
66524;BME280;53350;52.210;5.160;2023-04-30T03:49:06;102440.63;;;10.01;71.28
66524;BME280;53350;52.210;5.160;2023-04-30T03:51:32;102444.88;;;9.99;71.41
66524;BME280;53350;52.210;5.160;2023-04-30T03:54:03;102445.75;;;9.98;71.28
66524;BME280;53350;52.210;5.160;2023-04-30T03:56:30;102449.97;;;9.96;71.55
66524;BME280;53350;52.210;5.160;2023-04-30T03:58:58;102444.81;;;9.95;71.67
66524;BME280;53350;52.210;5.160;2023-04-30T04:01:25;102448.25;;;9.94;71.56
66524;BME280;53350;52.210;5.160;2023-04-30T04:03:52;102446.50;;;9.91;71.43
66524;BME280;53350;52.210;5.160;2023-04-30T04:06:19;102446.44;;;9.88;72.04
66524;BME280;53350;52.210;5.160;2023-04-30T04:08:45;102441.25;;;9.85;71.33
66524;BME280;53350;52.210;5.160;2023-04-30T04:11:12;102438.63;;;9.83;71.96
66524;BME280;53350;52.210;5.160;2023-04-30T04:13:38;102434.34;;;9.84;71.84
66524;BME280;53350;52.210;5.160;2023-04-30T04:16:06;102444.66;;;9.84;71.67
66524;BME280;53350;52.210;5.160;2023-04-30T04:18:33;102442.94;;;9.84;71.72
66524;BME280;53350;52.210;5.160;2023-04-30T04:21:00;102439.53;;;9.85;71.81
66524;BME280;53350;52.210;5.160;2023-04-30T04:23:27;102442.09;;;9.85;71.68
66524;BME280;53350;52.210;5.160;2023-04-30T04:25:53;102433.56;;;9.86;71.78
66524;BME280;53350;52.210;5.160;2023-04-30T04:28:21;102434.41;;;9.87;71.59
66524;BME280;53350;52.210;5.160;2023-04-30T04:30:48;102431.78;;;9.84;71.47
66524;BME280;53350;52.210;5.160;2023-04-30T04:33:15;102435.13;;;9.78;71.14
66524;BME280;53350;52.210;5.160;2023-04-30T04:35:42;102433.31;;;9.72;71.32
66524;BME280;53350;52.210;5.160;2023-04-30T04:38:08;102440.16;;;9.70;71.48
66524;BME280;53350;52.210;5.160;2023-04-30T04:40:35;102444.38;;;9.68;71.86
66524;BME280;53350;52.210;5.160;2023-04-30T04:43:02;102440.09;;;9.69;71.71
66524;BME280;53350;52.210;5.160;2023-04-30T04:45:28;102444.34;;;9.67;71.84
66524;BME280;53350;52.210;5.160;2023-04-30T04:47:55;102448.66;;;9.68;72.05
66524;BME280;53350;52.210;5.160;2023-04-30T04:50:23;102450.44;;;9.70;72.39
66524;BME280;53350;52.210;5.160;2023-04-30T04:52:49;102453.88;;;9.72;72.23
66524;BME280;53350;52.210;5.160;2023-04-30T04:55:17;102450.50;;;9.75;72.23
66524;BME280;53350;52.210;5.160;2023-04-30T04:57:44;102450.53;;;9.77;72.36
66524;BME280;53350;52.210;5.160;2023-04-30T05:00:11;102451.38;;;9.77;72.40
66524;BME280;53350;52.210;5.160;2023-04-30T05:02:38;102450.59;;;9.80;72.38
66524;BME280;53350;52.210;5.160;2023-04-30T05:05:05;102444.59;;;9.81;72.38
66524;BME280;53350;52.210;5.160;2023-04-30T05:07:33;102448.88;;;9.82;72.57
66524;BME280;53350;52.210;5.160;2023-04-30T05:10:00;102440.34;;;9.84;72.49
66524;BME280;53350;52.210;5.160;2023-04-30T05:12:26;102452.44;;;9.88;72.33
66524;BME280;53350;52.210;5.160;2023-04-30T05:14:53;102455.03;;;9.90;72.37
66524;BME280;53350;52.210;5.160;2023-04-30T05:17:19;102446.50;;;9.92;72.31
66524;BME280;53350;52.210;5.160;2023-04-30T05:19:46;102449.19;;;10.00;72.67
66524;BME280;53350;52.210;5.160;2023-04-30T05:22:14;102452.78;;;10.08;72.59
66524;BME280;53350;52.210;5.160;2023-04-30T05:24:42;102455.47;;;10.18;72.67
66524;BME280;53350;52.210;5.160;2023-04-30T05:27:09;102454.78;;;10.30;72.36
66524;BME280;53350;52.210;5.160;2023-04-30T05:29:35;102458.38;;;10.38;72.12
66524;BME280;53350;52.210;5.160;2023-04-30T05:32:01;102461.94;;;10.46;72.04
66524;BME280;53350;52.210;5.160;2023-04-30T05:34:28;102469.84;;;10.58;71.93
66524;BME280;53350;52.210;5.160;2023-04-30T05:36:54;102474.38;;;10.75;71.77
66524;BME280;53350;52.210;5.160;2023-04-30T05:39:21;102470.28;;;10.91;71.73
66524;BME280;53350;52.210;5.160;2023-04-30T05:41:49;102475.59;;;11.06;71.52
66524;BME280;53350;52.210;5.160;2023-04-30T05:44:15;102480.13;;;11.23;70.92
66524;BME280;53350;52.210;5.160;2023-04-30T05:46:41;102481.97;;;11.36;70.18
66524;BME280;53350;52.210;5.160;2023-04-30T05:49:08;102486.34;;;11.43;69.46
66524;BME280;53350;52.210;5.160;2023-04-30T05:51:34;102482.16;;;11.53;69.73
66524;BME280;53350;52.210;5.160;2023-04-30T05:54:01;102489.09;;;11.59;68.95
66524;BME280;53350;52.210;5.160;2023-04-30T05:56:27;102484.06;;;11.73;68.85
66524;BME280;53350;52.210;5.160;2023-04-30T05:58:55;102483.28;;;11.83;68.10
66524;BME280;53350;52.210;5.160;2023-04-30T06:01:21;102477.34;;;11.92;67.91
66524;BME280;53350;52.210;5.160;2023-04-30T06:03:48;102482.69;;;12.07;67.63
66524;BME280;53350;52.210;5.160;2023-04-30T06:06:14;102483.63;;;12.18;67.39
66524;BME280;53350;52.210;5.160;2023-04-30T06:08:41;102475.94;;;12.29;66.79
66524;BME280;53350;52.210;5.160;2023-04-30T06:11:10;102486.34;;;12.39;66.50
66524;BME280;53350;52.210;5.160;2023-04-30T06:13:37;102480.38;;;12.46;65.72
66524;BME280;53350;52.210;5.160;2023-04-30T06:16:06;102483.81;;;12.49;65.37
66524;BME280;53350;52.210;5.160;2023-04-30T06:18:32;102482.16;;;12.58;65.49
66524;BME280;53350;52.210;5.160;2023-04-30T06:20:59;102479.63;;;12.67;65.16
66524;BME280;53350;52.210;5.160;2023-04-30T06:23:25;102482.28;;;12.84;64.81
66524;BME280;53350;52.210;5.160;2023-04-30T06:25:51;102487.50;;;12.93;64.34
66524;BME280;53350;52.210;5.160;2023-04-30T06:28:18;102490.97;;;12.98;63.53
66524;BME280;53350;52.210;5.160;2023-04-30T06:30:45;102487.56;;;13.01;63.60
66524;BME280;53350;52.210;5.160;2023-04-30T06:33:13;102488.41;;;13.08;63.25
66524;BME280;53350;52.210;5.160;2023-04-30T06:35:39;102486.72;;;13.13;62.26
66524;BME280;53350;52.210;5.160;2023-04-30T06:38:06;102485.03;;;13.18;62.49
66524;BME280;53350;52.210;5.160;2023-04-30T06:40:33;102485.91;;;13.25;62.31
66524;BME280;53350;52.210;5.160;2023-04-30T06:42:59;102491.97;;;13.28;62.09
66524;BME280;53350;52.210;5.160;2023-04-30T06:45:25;102490.28;;;13.36;61.92
66524;BME280;53350;52.210;5.160;2023-04-30T06:47:53;102501.53;;;13.43;61.25
66524;BME280;53350;52.210;5.160;2023-04-30T06:50:21;102497.19;;;13.42;60.97
66524;BME280;53350;52.210;5.160;2023-04-30T06:52:47;102497.19;;;13.44;61.15
66524;BME280;53350;52.210;5.160;2023-04-30T06:55:14;102496.34;;;13.42;60.89
66524;BME280;53350;52.210;5.160;2023-04-30T06:57:40;102490.31;;;13.44;60.97
66524;BME280;53350;52.210;5.160;2023-04-30T07:00:08;102497.19;;;13.47;61.05
66524;BME280;53350;52.210;5.160;2023-04-30T07:02:34;102490.31;;;13.53;60.78
66524;BME280;53350;52.210;5.160;2023-04-30T07:05:01;102496.34;;;13.55;60.87
66524;BME280;53350;52.210;5.160;2023-04-30T07:07:28;102500.69;;;13.60;61.00
66524;BME280;53350;52.210;5.160;2023-04-30T07:09:55;102497.28;;;13.76;60.44
66524;BME280;53350;52.210;5.160;2023-04-30T07:12:21;102496.41;;;13.82;60.38
66524;BME280;53350;52.210;5.160;2023-04-30T07:14:48;102504.19;;;13.89;59.56
66524;BME280;53350;52.210;5.160;2023-04-30T07:17:14;102490.38;;;13.95;59.49
66524;BME280;53350;52.210;5.160;2023-04-30T07:19:41;102501.59;;;13.91;59.37
66524;BME280;53350;52.210;5.160;2023-04-30T07:22:07;102502.44;;;13.95;58.91
66524;BME280;53350;52.210;5.160;2023-04-30T07:24:35;102505.03;;;13.91;59.40
66524;BME280;53350;52.210;5.160;2023-04-30T07:27:02;102490.38;;;13.92;59.18
66524;BME280;53350;52.210;5.160;2023-04-30T07:29:28;102502.44;;;13.91;59.36
66524;BME280;53350;52.210;5.160;2023-04-30T07:31:54;102494.69;;;14.02;58.80
66524;BME280;53350;52.210;5.160;2023-04-30T07:34:21;102495.53;;;14.07;59.38
66524;BME280;53350;52.210;5.160;2023-04-30T07:36:48;102486.91;;;14.19;59.04
66524;BME280;53350;52.210;5.160;2023-04-30T07:39:15;102499.00;;;14.31;58.65
66524;BME280;53350;52.210;5.160;2023-04-30T07:41:43;102488.63;;;14.36;58.64
66524;BME280;53350;52.210;5.160;2023-04-30T07:44:09;102486.00;;;14.39;58.52
66524;BME280;53350;52.210;5.160;2023-04-30T07:46:36;102484.28;;;14.47;58.29
66524;BME280;53350;52.210;5.160;2023-04-30T07:49:03;102482.53;;;14.51;58.15
66524;BME280;53350;52.210;5.160;2023-04-30T07:51:29;102482.50;;;14.57;57.97
66524;BME280;53350;52.210;5.160;2023-04-30T07:53:57;102485.97;;;14.67;57.50
66524;BME280;53350;52.210;5.160;2023-04-30T07:56:23;102485.97;;;14.74;56.92
66524;BME280;53350;52.210;5.160;2023-04-30T07:58:51;102481.66;;;14.72;56.99
66524;BME280;53350;52.210;5.160;2023-04-30T08:01:17;102485.94;;;14.84;57.13
66524;BME280;53350;52.210;5.160;2023-04-30T08:03:44;102484.16;;;14.93;57.06
66524;BME280;53350;52.210;5.160;2023-04-30T08:06:10;102478.88;;;15.13;56.06
66524;BME280;53350;52.210;5.160;2023-04-30T08:08:37;102474.47;;;15.33;55.72
66524;BME280;53350;52.210;5.160;2023-04-30T08:11:03;102482.13;;;15.46;55.18
66524;BME280;53350;52.210;5.160;2023-04-30T08:13:30;102479.50;;;15.57;55.02
66524;BME280;53350;52.210;5.160;2023-04-30T08:15:58;102475.91;;;15.72;54.84
66524;BME280;53350;52.210;5.160;2023-04-30T08:18:24;102475.91;;;15.81;54.37
66524;BME280;53350;52.210;5.160;2023-04-30T08:20:51;102469.81;;;15.81;53.58
66524;BME280;53350;52.210;5.160;2023-04-30T08:23:17;102479.34;;;15.77;52.34
66524;BME280;53350;52.210;5.160;2023-04-30T08:25:44;102481.09;;;15.78;52.63
66524;BME280;53350;52.210;5.160;2023-04-30T08:28:11;102474.09;;;15.88;52.44
66524;BME280;53350;52.210;5.160;2023-04-30T08:30:38;102476.59;;;15.99;53.29
66524;BME280;53350;52.210;5.160;2023-04-30T08:33:05;102474.72;;;16.12;51.83
66524;BME280;53350;52.210;5.160;2023-04-30T08:35:32;102474.66;;;16.23;51.84
66524;BME280;53350;52.210;5.160;2023-04-30T08:37:58;102483.25;;;16.31;51.17
66524;BME280;53350;52.210;5.160;2023-04-30T08:40:25;102475.38;;;16.37;50.80
66524;BME280;53350;52.210;5.160;2023-04-30T08:42:59;102469.19;;;16.47;50.35
66524;BME280;53350;52.210;5.160;2023-04-30T08:45:30;102467.41;;;16.54;50.41
66524;BME280;53350;52.210;5.160;2023-04-30T08:47:58;102470.00;;;16.54;49.75
66524;BME280;53350;52.210;5.160;2023-04-30T08:50:27;102465.69;;;16.51;49.91
66524;BME280;53350;52.210;5.160;2023-04-30T08:52:53;102467.44;;;16.48;49.53
66524;BME280;53350;52.210;5.160;2023-04-30T08:55:20;102468.13;;;16.65;49.17
66524;BME280;53350;52.210;5.160;2023-04-30T08:57:46;102479.34;;;16.71;49.22
66524;BME280;53350;52.210;5.160;2023-04-30T09:00:13;102472.38;;;16.71;48.55
66524;BME280;53350;52.210;5.160;2023-04-30T09:02:40;102467.16;;;16.73;48.95
66524;BME280;53350;52.210;5.160;2023-04-30T09:05:09;102465.38;;;16.78;48.98
66524;BME280;53350;52.210;5.160;2023-04-30T09:07:39;102473.13;;;16.82;48.95
66524;BME280;53350;52.210;5.160;2023-04-30T09:10:13;102467.84;;;16.92;49.65
66524;BME280;53350;52.210;5.160;2023-04-30T09:12:40;102471.94;;;17.10;48.79
66524;BME280;53350;52.210;5.160;2023-04-30T09:15:10;102464.94;;;17.15;49.09
66524;BME280;53350;52.210;5.160;2023-04-30T09:17:37;102469.13;;;17.25;49.06
66524;BME280;53350;52.210;5.160;2023-04-30T09:20:09;102468.19;;;17.31;48.53
66524;BME280;53350;52.210;5.160;2023-04-30T09:22:38;102460.28;;;17.37;48.63
66524;BME280;53350;52.210;5.160;2023-04-30T09:25:05;102465.25;;;17.51;48.88
66524;BME280;53350;52.210;5.160;2023-04-30T09:27:32;102463.56;;;17.50;48.37
66524;BME280;53350;52.210;5.160;2023-04-30T09:29:58;102461.00;;;17.48;47.95
66524;BME280;53350;52.210;5.160;2023-04-30T09:32:25;102449.63;;;17.51;48.23
66524;BME280;53350;52.210;5.160;2023-04-30T09:34:52;102452.19;;;17.55;48.46
66524;BME280;53350;52.210;5.160;2023-04-30T09:37:18;102453.88;;;17.58;48.95
66524;BME280;53350;52.210;5.160;2023-04-30T09:39:47;102449.41;;;17.66;48.56
66524;BME280;53350;52.210;5.160;2023-04-30T09:42:14;102446.03;;;17.60;48.71
66524;BME280;53350;52.210;5.160;2023-04-30T09:44:41;102454.81;;;17.54;48.30
66524;BME280;53350;52.210;5.160;2023-04-30T09:47:12;102441.81;;;17.51;48.59
66524;BME280;53350;52.210;5.160;2023-04-30T09:49:41;102440.03;;;17.54;48.84
66524;BME280;53350;52.210;5.160;2023-04-30T09:52:08;102427.78;;;17.60;48.72
66524;BME280;53350;52.210;5.160;2023-04-30T09:54:34;102433.63;;;17.74;48.50
66524;BME280;53350;52.210;5.160;2023-04-30T09:57:03;102432.59;;;17.86;47.92
66524;BME280;53350;52.210;5.160;2023-04-30T09:59:31;102424.75;;;17.86;47.54
66524;BME280;53350;52.210;5.160;2023-04-30T10:02:00;102438.84;;;17.74;47.75
66524;BME280;53350;52.210;5.160;2023-04-30T10:04:29;102430.28;;;17.67;47.50
66524;BME280;53350;52.210;5.160;2023-04-30T10:06:58;102432.00;;;17.67;47.83
66524;BME280;53350;52.210;5.160;2023-04-30T10:09:28;102433.88;;;17.60;47.34
66524;BME280;53350;52.210;5.160;2023-04-30T10:11:56;102440.91;;;17.53;47.84
66524;BME280;53350;52.210;5.160;2023-04-30T10:14:27;102433.28;;;17.43;48.22
66524;BME280;53350;52.210;5.160;2023-04-30T10:16:57;102421.22;;;17.37;47.93
66524;BME280;53350;52.210;5.160;2023-04-30T10:19:29;102424.50;;;17.48;47.68
66524;BME280;53350;52.210;5.160;2023-04-30T10:21:56;102423.50;;;17.57;47.62
66524;BME280;53350;52.210;5.160;2023-04-30T10:24:24;102422.53;;;17.63;47.53
66524;BME280;53350;52.210;5.160;2023-04-30T10:26:50;102418.03;;;17.71;47.54
66524;BME280;53350;52.210;5.160;2023-04-30T10:29:17;102424.09;;;17.75;47.41
66524;BME280;53350;52.210;5.160;2023-04-30T10:31:50;102413.69;;;17.73;47.45
66524;BME280;53350;52.210;5.160;2023-04-30T10:34:26;102412.81;;;17.72;47.69
66524;BME280;53350;52.210;5.160;2023-04-30T10:36:56;102416.16;;;17.81;47.36
66524;BME280;53350;52.210;5.160;2023-04-30T10:39:25;102406.56;;;17.81;47.14
66524;BME280;53350;52.210;5.160;2023-04-30T10:42:01;102403.09;;;17.82;47.75
66524;BME280;53350;52.210;5.160;2023-04-30T10:44:30;102400.28;;;17.96;47.37
66524;BME280;53350;52.210;5.160;2023-04-30T10:46:59;102395.72;;;18.07;47.55
66524;BME280;53350;52.210;5.160;2023-04-30T10:49:26;102392.81;;;18.23;47.78
66524;BME280;53350;52.210;5.160;2023-04-30T10:51:53;102398.69;;;18.34;46.95
66524;BME280;53350;52.210;5.160;2023-04-30T10:54:24;102384.72;;;18.37;46.32
66524;BME280;53350;52.210;5.160;2023-04-30T10:56:51;102386.38;;;18.41;46.67
66524;BME280;53350;52.210;5.160;2023-04-30T10:59:20;102382.78;;;18.47;46.13
66524;BME280;53350;52.210;5.160;2023-04-30T11:01:56;102379.25;;;18.48;46.08
66524;BME280;53350;52.210;5.160;2023-04-30T11:04:24;102384.41;;;18.51;46.02
66524;BME280;53350;52.210;5.160;2023-04-30T11:06:54;102381.69;;;18.57;46.09
66524;BME280;53350;52.210;5.160;2023-04-30T11:09:33;102382.41;;;18.64;45.22
66524;BME280;53350;52.210;5.160;2023-04-30T11:12:02;102376.19;;;18.69;45.40
66524;BME280;53350;52.210;5.160;2023-04-30T11:14:31;102371.59;;;18.81;45.54
66524;BME280;53350;52.210;5.160;2023-04-30T11:16:58;102360.94;;;18.91;44.96
66524;BME280;53350;52.210;5.160;2023-04-30T11:19:27;102351.94;;;19.05;45.02
66524;BME280;53350;52.210;5.160;2023-04-30T11:22:20;102361.41;;;19.10;44.69
66524;BME280;53350;52.210;5.160;2023-04-30T11:25:03;102345.66;;;19.14;43.93
66524;BME280;53350;52.210;5.160;2023-04-30T11:27:31;102350.06;;;19.10;44.54
66524;BME280;53350;52.210;5.160;2023-04-30T11:29:59;102347.72;;;18.99;44.83
66524;BME280;53350;52.210;5.160;2023-04-30T11:32:30;102345.06;;;19.01;44.25
66524;BME280;53350;52.210;5.160;2023-04-30T11:34:59;102339.88;;;18.99;44.18
66524;BME280;53350;52.210;5.160;2023-04-30T11:37:28;102335.47;;;19.01;44.11
66524;BME280;53350;52.210;5.160;2023-04-30T11:39:56;102336.41;;;19.00;44.41
66524;BME280;53350;52.210;5.160;2023-04-30T11:42:22;102333.81;;;18.97;45.05
66524;BME280;53350;52.210;5.160;2023-04-30T11:44:49;102319.88;;;18.98;45.55
66524;BME280;53350;52.210;5.160;2023-04-30T11:47:15;102330.09;;;19.09;44.92
66524;BME280;53350;52.210;5.160;2023-04-30T11:49:42;102326.59;;;19.08;44.46
66524;BME280;53350;52.210;5.160;2023-04-30T11:52:11;102326.84;;;18.99;44.55
66524;BME280;53350;52.210;5.160;2023-04-30T11:54:38;102320.81;;;18.96;44.91
66524;BME280;53350;52.210;5.160;2023-04-30T11:57:04;102318.13;;;18.99;44.92
66524;BME280;53350;52.210;5.160;2023-04-30T11:59:31;102311.97;;;19.01;44.37
66524;BME280;53350;52.210;5.160;2023-04-30T12:02:05;102305.13;;;18.96;44.69
66524;BME280;53350;52.210;5.160;2023-04-30T12:04:32;102320.13;;;18.89;44.70
66524;BME280;53350;52.210;5.160;2023-04-30T12:06:59;102306.53;;;18.73;45.15
66524;BME280;53350;52.210;5.160;2023-04-30T12:09:28;102306.66;;;18.67;45.53
66524;BME280;53350;52.210;5.160;2023-04-30T12:11:54;102303.31;;;18.62;45.50
66524;BME280;53350;52.210;5.160;2023-04-30T12:14:23;102300.81;;;18.57;45.50
66524;BME280;53350;52.210;5.160;2023-04-30T12:16:51;102302.75;;;18.47;45.93
66524;BME280;53350;52.210;5.160;2023-04-30T12:19:19;102298.53;;;18.41;45.94
66524;BME280;53350;52.210;5.160;2023-04-30T12:21:47;102292.31;;;18.47;45.98
66524;BME280;53350;52.210;5.160;2023-04-30T12:24:15;102282.41;;;18.62;45.97
66524;BME280;53350;52.210;5.160;2023-04-30T12:26:44;102289.03;;;18.76;45.39
66524;BME280;53350;52.210;5.160;2023-04-30T12:29:13;102287.94;;;18.85;45.16
66524;BME280;53350;52.210;5.160;2023-04-30T12:31:41;102280.00;;;18.93;44.89
66524;BME280;53350;52.210;5.160;2023-04-30T12:34:09;102281.56;;;19.00;44.71
66524;BME280;53350;52.210;5.160;2023-04-30T12:36:38;102281.47;;;19.03;44.41
66524;BME280;53350;52.210;5.160;2023-04-30T12:39:07;102276.41;;;18.96;45.05
66524;BME280;53350;52.210;5.160;2023-04-30T12:41:36;102282.66;;;18.90;44.74
66524;BME280;53350;52.210;5.160;2023-04-30T12:44:20;102274.88;;;18.87;44.74
66524;BME280;53350;52.210;5.160;2023-04-30T12:46:47;102273.16;;;18.86;44.46
66524;BME280;53350;52.210;5.160;2023-04-30T12:49:24;102274.28;;;18.74;44.90
66524;BME280;53350;52.210;5.160;2023-04-30T12:51:51;102282.28;;;18.68;44.88
66524;BME280;53350;52.210;5.160;2023-04-30T12:54:24;102263.06;;;18.70;44.50